Time;durP1;ratioP1;P1;durP2;ratioP2;P2;SDS_P1;SDS_P2;PMS_P1;PMS_P2;Temp;Humidity;BMP_temperature;BMP_pressure;BME280_temperature;BME280_humidity;BME280_pressure;Samples;Min_cycle;Max_cycle;Signal;HPM_P1;HPM_P2
2023/04/12 00:00:51;;;;;;;0.30;0.30;;;;;;;;;;5019401;28;20021;-83
2023/04/12 00:03:19;;;;;;;0.30;0.30;;;;;;;;;;5020820;28;20499;-83
2023/04/12 00:05:47;;;;;;;0.60;0.60;;;;;;;;;;5026894;28;20022;-83
2023/04/12 00:08:13;;;;;;;2.28;0.60;;;;;;;;;;5023563;28;20022;-82
2023/04/12 00:10:39;;;;;;;0.40;0.40;;;;;;;;;;5026400;28;20029;-83
2023/04/12 00:13:05;;;;;;;0.40;0.40;;;;;;;;;;5019735;28;20032;-83
2023/04/12 00:15:31;;;;;;;0.25;0.25;;;;;;;;;;5025433;28;20025;-83
2023/04/12 00:17:57;;;;;;;0.60;0.50;;;;;;;;;;5021945;28;20036;-83
2023/04/12 00:20:23;;;;;;;0.20;0.20;;;;;;;;;;5023931;28;20033;-83
2023/04/12 00:22:52;;;;;;;0.38;0.30;;;;;;;;;;5017305;28;20038;-84
2023/04/12 00:25:21;;;;;;;0.57;0.57;;;;;;;;;;5015595;28;20120;-82
2023/04/12 00:27:47;;;;;;;2.38;0.77;;;;;;;;;;5013556;28;20033;-83
2023/04/12 00:30:13;;;;;;;1.63;0.52;;;;;;;;;;5016513;28;20029;-84
2023/04/12 00:32:39;;;;;;;0.30;0.30;;;;;;;;;;5023405;28;20087;-84
2023/04/12 00:35:05;;;;;;;0.82;0.40;;;;;;;;;;5027264;28;20021;-84
2023/04/12 00:37:31;;;;;;;1.02;0.40;;;;;;;;;;5025313;28;20029;-84
2023/04/12 00:39:57;;;;;;;1.25;0.40;;;;;;;;;;5026657;28;20056;-84
2023/04/12 00:42:23;;;;;;;0.38;0.38;;;;;;;;;;5023172;28;20476;-84
2023/04/12 00:44:50;;;;;;;0.50;0.50;;;;;;;;;;5015671;28;20384;-84
2023/04/12 00:47:16;;;;;;;0.88;0.50;;;;;;;;;;5025863;28;20032;-83
2023/04/12 00:49:42;;;;;;;0.55;0.50;;;;;;;;;;5021076;28;20045;-83
2023/04/12 00:52:08;;;;;;;0.30;0.30;;;;;;;;;;5024231;28;20034;-83
2023/04/12 00:54:35;;;;;;;0.20;0.20;;;;;;;;;;5022515;28;20036;-84
2023/04/12 00:57:01;;;;;;;0.50;0.50;;;;;;;;;;5022600;28;20017;-84
2023/04/12 00:59:27;;;;;;;0.90;0.60;;;;;;;;;;5019921;28;20013;-84
2023/04/12 01:01:54;;;;;;;0.52;0.43;;;;;;;;;;5020692;28;20028;-83
2023/04/12 01:04:21;;;;;;;1.25;0.30;;;;;;;;;;5023821;28;20017;-84
2023/04/12 01:07:06;;;;;;;0.68;0.28;;;;;;;;;;5022391;28;20046;-83
2023/04/12 01:09:40;;;;;;;0.40;0.40;;;;;;;;;;5022682;28;20080;-84
2023/04/12 01:12:20;;;;;;;0.50;0.50;;;;;;;;;;5019102;28;20029;-84
2023/04/12 01:14:51;;;;;;;0.97;0.43;;;;;;;;;;5022834;28;20379;-84
2023/04/12 01:17:21;;;;;;;0.73;0.73;;;;;;;;;;5021991;28;20122;-83
2023/04/12 01:19:57;;;;;;;0.30;0.30;;;;;;;;;;5018872;28;20022;-84
2023/04/12 01:22:23;;;;;;;0.15;0.15;;;;;;;;;;5023078;28;20072;-84
2023/04/12 01:25:08;;;;;;;0.40;0.40;;;;;;;;;;5017803;28;20029;-83
2023/04/12 01:27:44;;;;;;;0.20;0.20;;;;;;;;;;5010327;28;20621;-84
2023/04/12 01:30:11;;;;;;;0.30;0.30;;;;;;;;;;5026022;28;20025;-85
2023/04/12 01:32:38;;;;;;;0.70;0.60;;;;;;;;;;5023485;28;20044;-87
2023/04/12 01:35:07;;;;;;;0.70;0.47;;;;;;;;;;5023204;28;20029;-83
2023/04/12 01:37:33;;;;;;;0.55;0.40;;;;;;;;;;5019519;28;20028;-83
2023/04/12 01:40:00;;;;;;;0.30;0.30;;;;;;;;;;5024949;28;20512;-83
2023/04/12 01:42:25;;;;;;;0.52;0.38;;;;;;;;;;5012057;28;20033;-83
2023/04/12 01:44:51;;;;;;;0.60;0.55;;;;;;;;;;5023926;28;20026;-83
2023/04/12 01:47:17;;;;;;;0.32;0.32;;;;;;;;;;5025028;28;20033;-84
2023/04/12 01:49:55;;;;;;;0.52;0.50;;;;;;;;;;5018383;28;20040;-84
2023/04/12 01:52:22;;;;;;;0.40;0.40;;;;;;;;;;5018425;28;20022;-84
2023/04/12 01:54:53;;;;;;;1.42;0.52;;;;;;;;;;5024496;28;20425;-84
2023/04/12 01:57:20;;;;;;;0.38;0.35;;;;;;;;;;5016714;28;20570;-83
2023/04/12 01:59:47;;;;;;;0.25;0.25;;;;;;;;;;5018676;28;20124;-83
2023/04/12 02:02:13;;;;;;;0.30;0.30;;;;;;;;;;5015507;28;20021;-84
2023/04/12 02:04:40;;;;;;;0.52;0.50;;;;;;;;;;5018027;28;20034;-83
2023/04/12 02:07:06;;;;;;;3.10;0.30;;;;;;;;;;5023130;28;20048;-83
2023/04/12 02:09:37;;;;;;;0.73;0.60;;;;;;;;;;5016207;28;20046;-83
2023/04/12 02:12:03;;;;;;;0.70;0.30;;;;;;;;;;5018748;28;20037;-83
2023/04/12 02:14:30;;;;;;;0.55;0.43;;;;;;;;;;5017261;28;20042;-83
2023/04/12 02:16:57;;;;;;;0.28;0.28;;;;;;;;;;5018459;28;20477;-83
2023/04/12 02:19:23;;;;;;;2.67;0.40;;;;;;;;;;5017222;28;20029;-83
2023/04/12 02:21:49;;;;;;;0.50;0.50;;;;;;;;;;5023543;28;20029;-83
2023/04/12 02:24:15;;;;;;;1.10;0.50;;;;;;;;;;5023165;28;20022;-83
2023/04/12 02:26:41;;;;;;;0.50;0.50;;;;;;;;;;5017252;28;20026;-83
2023/04/12 02:29:09;;;;;;;0.90;0.60;;;;;;;;;;5014975;28;20030;-83
2023/04/12 02:31:35;;;;;;;0.40;0.40;;;;;;;;;;5025649;28;20057;-83
2023/04/12 02:34:02;;;;;;;1.20;0.63;;;;;;;;;;5019785;28;20505;-82
2023/04/12 02:36:28;;;;;;;0.47;0.45;;;;;;;;;;5023813;28;20026;-83
2023/04/12 02:38:55;;;;;;;0.43;0.43;;;;;;;;;;5020246;28;20025;-83
2023/04/12 02:41:21;;;;;;;0.28;0.28;;;;;;;;;;5017061;28;20468;-83
2023/04/12 02:43:47;;;;;;;0.35;0.35;;;;;;;;;;5028665;28;20117;-83
2023/04/12 02:46:22;;;;;;;0.40;0.40;;;;;;;;;;5026791;28;20034;-83
2023/04/12 02:48:49;;;;;;;0.52;0.52;;;;;;;;;;5023361;28;20029;-83
2023/04/12 02:51:15;;;;;;;0.73;0.40;;;;;;;;;;5021552;28;20037;-83
2023/04/12 02:53:41;;;;;;;0.40;0.38;;;;;;;;;;5024053;28;20037;-83
2023/04/12 02:56:07;;;;;;;0.40;0.40;;;;;;;;;;5027440;28;20025;-83
2023/04/12 02:58:34;;;;;;;0.30;0.30;;;;;;;;;;5026012;28;20025;-83
2023/04/12 03:01:00;;;;;;;0.30;0.30;;;;;;;;;;5022746;28;20029;-83
2023/04/12 03:03:30;;;;;;;0.55;0.55;;;;;;;;;;5017805;28;20022;-84
2023/04/12 03:05:57;;;;;;;0.68;0.40;;;;;;;;;;5024809;28;20071;-84
2023/04/12 03:08:23;;;;;;;1.17;0.82;;;;;;;;;;5026720;28;20017;-84
2023/04/12 03:10:49;;;;;;;0.30;0.30;;;;;;;;;;5021028;28;20388;-83
2023/04/12 03:13:15;;;;;;;0.73;0.50;;;;;;;;;;5023728;28;20045;-83
2023/04/12 03:15:42;;;;;;;0.75;0.40;;;;;;;;;;5023312;28;20017;-84
2023/04/12 03:18:08;;;;;;;0.30;0.30;;;;;;;;;;5026941;28;20045;-83
2023/04/12 03:20:34;;;;;;;0.40;0.40;;;;;;;;;;5029185;28;20033;-83
2023/04/12 03:23:00;;;;;;;0.98;0.47;;;;;;;;;;5021294;28;20025;-83
2023/04/12 03:25:26;;;;;;;0.40;0.40;;;;;;;;;;5022956;28;20498;-83
2023/04/12 03:27:52;;;;;;;1.50;0.50;;;;;;;;;;5022901;28;20030;-83
2023/04/12 03:30:18;;;;;;;1.15;0.65;;;;;;;;;;5025693;28;20107;-83
2023/04/12 03:32:44;;;;;;;0.50;0.50;;;;;;;;;;5024835;28;20038;-83
2023/04/12 03:35:11;;;;;;;0.52;0.40;;;;;;;;;;5020545;28;20027;-83
2023/04/12 03:37:37;;;;;;;1.35;0.47;;;;;;;;;;5025569;28;20041;-84
2023/04/12 03:40:03;;;;;;;0.20;0.20;;;;;;;;;;5023597;28;20115;-84
2023/04/12 03:42:29;;;;;;;0.75;0.75;;;;;;;;;;5021410;28;20040;-84
2023/04/12 03:44:55;;;;;;;0.52;0.40;;;;;;;;;;5027207;28;20049;-83
2023/04/12 03:47:21;;;;;;;0.77;0.50;;;;;;;;;;5019961;28;20025;-85
2023/04/12 03:49:47;;;;;;;0.40;0.32;;;;;;;;;;5025460;28;20021;-83
2023/04/12 03:52:13;;;;;;;0.30;0.30;;;;;;;;;;5026685;28;20037;-83
2023/04/12 03:54:43;;;;;;;0.32;0.32;;;;;;;;;;5023138;28;20128;-83
2023/04/12 03:57:09;;;;;;;1.00;0.60;;;;;;;;;;5017377;28;20039;-83
2023/04/12 03:59:35;;;;;;;0.47;0.47;;;;;;;;;;5021680;28;20025;-84
2023/04/12 04:02:03;;;;;;;0.35;0.35;;;;;;;;;;5020595;28;20385;-83
2023/04/12 04:04:30;;;;;;;0.20;0.20;;;;;;;;;;5025346;28;20060;-85
2023/04/12 04:06:56;;;;;;;0.95;0.40;;;;;;;;;;5016891;28;20644;-83
2023/04/12 04:09:22;;;;;;;0.30;0.30;;;;;;;;;;5012048;28;20049;-84
2023/04/12 04:11:49;;;;;;;0.90;0.30;;;;;;;;;;5012392;28;20080;-84
2023/04/12 04:14:15;;;;;;;0.88;0.50;;;;;;;;;;5027345;28;20025;-84
2023/04/12 04:16:41;;;;;;;0.52;0.32;;;;;;;;;;5029304;28;20544;-85
2023/04/12 04:19:07;;;;;;;0.68;0.60;;;;;;;;;;5013960;28;20026;-87
2023/04/12 04:21:33;;;;;;;0.77;0.77;;;;;;;;;;5021402;28;20029;-85
2023/04/12 04:24:02;;;;;;;0.30;0.30;;;;;;;;;;5013445;28;20389;-83
2023/04/12 04:26:37;;;;;;;0.50;0.50;;;;;;;;;;5012254;28;20499;-83
2023/04/12 04:29:03;;;;;;;0.43;0.43;;;;;;;;;;5017809;28;20040;-85
2023/04/12 04:31:36;;;;;;;0.95;0.47;;;;;;;;;;5023287;28;20035;-86
2023/04/12 04:34:05;;;;;;;0.90;0.60;;;;;;;;;;5025713;28;20032;-87
2023/04/12 04:36:33;;;;;;;0.30;0.25;;;;;;;;;;5026403;28;20563;-85
2023/04/12 04:39:00;;;;;;;1.17;0.40;;;;;;;;;;5023818;28;20178;-86
2023/04/12 04:41:26;;;;;;;1.35;0.60;;;;;;;;;;5023526;28;20121;-87
2023/04/12 04:43:53;;;;;;;0.82;0.40;;;;;;;;;;5020847;28;20508;-86
2023/04/12 04:46:20;;;;;;;0.60;0.50;;;;;;;;;;5014186;28;20029;-84
2023/04/12 04:48:50;;;;;;;1.45;0.35;;;;;;;;;;5020657;28;20033;-78
2023/04/12 04:51:16;;;;;;;0.35;0.32;;;;;;;;;;5023417;28;20079;-79
2023/04/12 04:53:42;;;;;;;0.80;0.45;;;;;;;;;;5020745;28;20033;-80
2023/04/12 04:56:09;;;;;;;0.95;0.50;;;;;;;;;;5020978;28;20026;-79
2023/04/12 04:58:35;;;;;;;0.47;0.47;;;;;;;;;;5016225;28;20385;-77
2023/04/12 05:01:02;;;;;;;0.50;0.30;;;;;;;;;;5016846;28;20034;-79
2023/04/12 05:03:28;;;;;;;0.40;0.40;;;;;;;;;;5008856;28;20046;-79
2023/04/12 05:05:55;;;;;;;1.35;0.50;;;;;;;;;;5028172;28;20018;-78
2023/04/12 05:08:21;;;;;;;0.40;0.40;;;;;;;;;;5025211;28;20025;-79
2023/04/12 05:10:50;;;;;;;0.60;0.60;;;;;;;;;;5014374;28;20026;-78
2023/04/12 05:13:16;;;;;;;0.55;0.52;;;;;;;;;;5015545;28;20071;-78
2023/04/12 05:15:42;;;;;;;1.75;0.50;;;;;;;;;;5013545;28;20034;-78
2023/04/12 05:18:08;;;;;;;0.52;0.43;;;;;;;;;;5012788;28;20017;-79
2023/04/12 05:20:34;;;;;;;0.57;0.57;;;;;;;;;;5027546;28;20037;-80
2023/04/12 05:23:00;;;;;;;0.77;0.50;;;;;;;;;;5027680;28;20021;-77
2023/04/12 05:25:26;;;;;;;0.55;0.55;;;;;;;;;;5023142;28;20040;-85
2023/04/12 05:27:52;;;;;;;1.33;0.85;;;;;;;;;;5017399;28;20045;-85
2023/04/12 05:30:18;;;;;;;0.95;0.63;;;;;;;;;;5019265;28;20034;-85
2023/04/12 05:32:44;;;;;;;0.80;0.80;;;;;;;;;;5026112;28;20124;-84
2023/04/12 05:35:10;;;;;;;0.47;0.45;;;;;;;;;;5022981;28;20033;-85
2023/04/12 05:37:36;;;;;;;1.15;1.08;;;;;;;;;;5017619;28;20056;-85
2023/04/12 05:40:05;;;;;;;1.40;0.90;;;;;;;;;;5024307;28;20092;-86
2023/04/12 05:42:31;;;;;;;3.35;1.60;;;;;;;;;;5017150;28;20076;-84
2023/04/12 05:44:57;;;;;;;1.08;0.80;;;;;;;;;;5020727;28;20038;-83
2023/04/12 05:47:23;;;;;;;1.88;1.05;;;;;;;;;;5020990;28;20029;-85
2023/04/12 05:49:49;;;;;;;1.13;1.00;;;;;;;;;;5025543;28;20025;-84
2023/04/12 05:52:15;;;;;;;1.20;1.10;;;;;;;;;;5013511;28;20032;-84
2023/04/12 05:54:41;;;;;;;1.52;1.13;;;;;;;;;;5023273;28;20503;-85
2023/04/12 05:57:11;;;;;;;3.60;1.50;;;;;;;;;;5021007;28;20048;-85
2023/04/12 05:59:37;;;;;;;1.40;1.20;;;;;;;;;;5021109;28;20033;-85
2023/04/12 06:02:03;;;;;;;3.42;1.45;;;;;;;;;;5027019;28;20029;-85
2023/04/12 06:04:29;;;;;;;1.88;1.33;;;;;;;;;;5019375;28;20478;-87
2023/04/12 06:06:55;;;;;;;4.75;1.67;;;;;;;;;;5015749;28;20029;-86
2023/04/12 06:09:21;;;;;;;4.03;1.90;;;;;;;;;;5016466;28;20267;-86
2023/04/12 06:11:47;;;;;;;3.25;1.55;;;;;;;;;;5018366;28;20746;-86
2023/04/12 06:14:13;;;;;;;3.70;1.90;;;;;;;;;;5028809;28;20037;-86
2023/04/12 06:16:38;;;;;;;1.40;1.30;;;;;;;;;;5016178;28;20046;-86
2023/04/12 06:19:04;;;;;;;3.35;1.77;;;;;;;;;;5022464;28;20442;-88
2023/04/12 06:21:30;;;;;;;4.72;1.63;;;;;;;;;;5018025;28;20022;-86
2023/04/12 06:23:56;;;;;;;3.70;1.70;;;;;;;;;;5009024;28;20025;-87
2023/04/12 06:26:22;;;;;;;2.55;1.40;;;;;;;;;;5022393;28;20040;-90
2023/04/12 06:28:48;;;;;;;1.58;1.35;;;;;;;;;;5027185;28;20029;-90
2023/04/12 06:31:15;;;;;;;1.58;1.40;;;;;;;;;;5015009;28;20053;-86
2023/04/12 06:33:42;;;;;;;4.97;1.80;;;;;;;;;;5019656;28;20050;-88
2023/04/12 06:36:08;;;;;;;3.35;1.50;;;;;;;;;;5020676;28;20452;-88
2023/04/12 06:38:34;;;;;;;3.25;1.70;;;;;;;;;;5027671;28;20044;-90
2023/04/12 06:41:00;;;;;;;3.67;1.10;;;;;;;;;;5027595;28;20029;-89
2023/04/12 06:43:26;;;;;;;3.65;1.70;;;;;;;;;;5023027;28;20025;-88
2023/04/12 06:45:52;;;;;;;1.38;1.00;;;;;;;;;;5018145;28;20036;-89
2023/04/12 06:48:18;;;;;;;3.50;1.20;;;;;;;;;;5022166;28;20025;-90
2023/04/12 06:50:44;;;;;;;1.60;1.30;;;;;;;;;;5020251;28;20099;-86
2023/04/12 06:53:12;;;;;;;1.42;1.08;;;;;;;;;;5018442;28;20033;-87
2023/04/12 06:55:38;;;;;;;3.03;1.65;;;;;;;;;;5018971;28;20037;-90
2023/04/12 06:58:04;;;;;;;2.80;1.67;;;;;;;;;;5014082;28;20049;-90
2023/04/12 07:00:30;;;;;;;2.53;1.80;;;;;;;;;;5014244;28;20030;-91
2023/04/12 07:02:57;;;;;;;1.73;1.45;;;;;;;;;;5016574;28;20029;-90
2023/04/12 07:05:23;;;;;;;2.50;1.40;;;;;;;;;;5022496;28;20087;-90
2023/04/12 07:07:49;;;;;;;2.92;1.55;;;;;;;;;;5024181;28;20034;-90
2023/04/12 07:10:15;;;;;;;0.98;0.98;;;;;;;;;;5019623;28;20018;-90
2023/04/12 07:12:41;;;;;;;2.40;1.35;;;;;;;;;;5019963;28;20034;-89
2023/04/12 07:15:08;;;;;;;2.10;1.38;;;;;;;;;;5024540;28;20052;-87
2023/04/12 07:17:34;;;;;;;4.57;1.70;;;;;;;;;;5018406;28;20042;-78
2023/04/12 07:20:00;;;;;;;1.55;1.27;;;;;;;;;;5013248;28;20275;-84
2023/04/12 07:22:26;;;;;;;2.08;1.50;;;;;;;;;;5016962;28;20013;-83
2023/04/12 07:24:52;;;;;;;4.80;1.55;;;;;;;;;;5022748;28;20052;-83
2023/04/12 07:27:18;;;;;;;2.25;1.60;;;;;;;;;;5024702;28;20087;-86
2023/04/12 07:29:44;;;;;;;1.95;1.17;;;;;;;;;;5027781;28;20037;-76
2023/04/12 07:32:10;;;;;;;1.55;1.23;;;;;;;;;;5024431;28;20030;-86
2023/04/12 07:34:38;;;;;;;3.70;2.13;;;;;;;;;;5025799;28;20033;-87
2023/04/12 07:37:04;;;;;;;2.65;1.60;;;;;;;;;;5021757;28;20032;-84
2023/04/12 07:39:30;;;;;;;2.95;1.55;;;;;;;;;;5024442;28;20025;-85
2023/04/12 07:41:56;;;;;;;5.22;1.75;;;;;;;;;;5021045;28;20041;-83
2023/04/12 07:44:22;;;;;;;2.28;1.40;;;;;;;;;;5022884;28;20024;-84
2023/04/12 07:46:48;;;;;;;3.13;1.55;;;;;;;;;;5014611;28;20048;-83
2023/04/12 07:49:14;;;;;;;2.30;1.25;;;;;;;;;;5022698;28;20033;-78
2023/04/12 07:51:43;;;;;;;4.10;1.65;;;;;;;;;;5025167;28;20030;-82
2023/04/12 07:54:10;;;;;;;2.80;1.80;;;;;;;;;;5017327;28;20397;-80
2023/04/12 07:56:36;;;;;;;4.38;2.15;;;;;;;;;;5021627;28;20038;-84
2023/04/12 07:59:05;;;;;;;5.70;1.77;;;;;;;;;;5012712;28;20029;-79
2023/04/12 08:01:31;;;;;;;2.13;1.73;;;;;;;;;;5021814;28;20110;-80
2023/04/12 08:03:57;;;;;;;2.63;1.83;;;;;;;;;;5025369;28;20037;-80
2023/04/12 08:06:23;;;;;;;2.15;1.15;;;;;;;;;;5015045;28;20287;-81
2023/04/12 08:08:49;;;;;;;1.98;1.25;;;;;;;;;;5016751;28;20050;-82
2023/04/12 08:11:15;;;;;;;1.73;1.30;;;;;;;;;;5014814;28;20504;-79
2023/04/12 08:13:41;;;;;;;2.85;1.75;;;;;;;;;;5019111;28;20136;-74
2023/04/12 08:16:07;;;;;;;1.88;1.45;;;;;;;;;;5017104;28;20132;-74
2023/04/12 08:18:33;;;;;;;3.08;1.30;;;;;;;;;;5016959;28;20025;-75
2023/04/12 08:21:00;;;;;;;2.30;1.42;;;;;;;;;;5017792;28;20029;-75
2023/04/12 08:23:26;;;;;;;3.72;1.40;;;;;;;;;;5016818;28;20025;-75
2023/04/12 08:26:01;;;;;;;2.00;1.30;;;;;;;;;;5023699;28;20022;-74
2023/04/12 08:28:27;;;;;;;3.40;1.70;;;;;;;;;;5011146;28;20404;-74
2023/04/12 08:30:53;;;;;;;4.60;1.48;;;;;;;;;;5010337;28;20025;-75
2023/04/12 08:33:19;;;;;;;3.85;2.40;;;;;;;;;;5006902;28;20057;-77
2023/04/12 08:35:45;;;;;;;4.65;2.35;;;;;;;;;;5010066;28;20057;-75
2023/04/12 08:38:11;;;;;;;1.70;1.48;;;;;;;;;;5010036;28;20041;-76
2023/04/12 08:40:38;;;;;;;5.18;3.22;;;;;;;;;;5005406;28;20030;-81
2023/04/12 08:43:07;;;;;;;5.78;3.08;;;;;;;;;;5007599;28;20053;-76
2023/04/12 08:45:35;;;;;;;5.40;2.58;;;;;;;;;;5016137;28;20107;-81
2023/04/12 08:48:02;;;;;;;4.00;1.92;;;;;;;;;;5021489;28;20057;-79
2023/04/12 08:50:29;;;;;;;4.53;2.47;;;;;;;;;;5026193;28;20473;-80
2023/04/12 08:52:55;;;;;;;6.00;3.08;;;;;;;;;;5024976;28;20029;-80
2023/04/12 08:55:21;;;;;;;4.95;2.50;;;;;;;;;;5021186;28;20473;-81
2023/04/12 08:57:47;;;;;;;5.85;2.30;;;;;;;;;;5024348;28;20111;-81
2023/04/12 09:00:14;;;;;;;3.33;2.22;;;;;;;;;;5022597;28;20587;-73
2023/04/12 09:02:44;;;;;;;3.45;1.83;;;;;;;;;;5022435;28;20717;-74
2023/04/12 09:05:13;;;;;;;4.50;2.17;;;;;;;;;;5023128;28;20053;-74
2023/04/12 09:07:39;;;;;;;7.95;2.40;;;;;;;;;;5022609;28;20029;-74
2023/04/12 09:10:05;;;;;;;3.42;1.95;;;;;;;;;;5024668;28;20487;-74
2023/04/12 09:12:31;;;;;;;5.32;2.72;;;;;;;;;;5023363;28;20030;-74
2023/04/12 09:15:08;;;;;;;3.28;1.80;;;;;;;;;;5026121;28;20052;-74
2023/04/12 09:17:35;;;;;;;2.67;1.70;;;;;;;;;;5022180;28;20049;-75
2023/04/12 09:20:05;;;;;;;2.80;1.40;;;;;;;;;;5013412;28;20040;-74
2023/04/12 09:22:34;;;;;;;2.20;1.50;;;;;;;;;;5009276;28;20037;-74
2023/04/12 09:25:00;;;;;;;4.65;1.80;;;;;;;;;;5015415;28;20032;-74
2023/04/12 09:27:28;;;;;;;3.97;1.90;;;;;;;;;;5013542;28;20095;-74
2023/04/12 09:30:20;;;;;;;6.80;1.58;;;;;;;;;;5017990;28;20468;-75
2023/04/12 09:32:49;;;;;;;3.85;2.15;;;;;;;;;;5021313;28;20630;-75
2023/04/12 09:35:15;;;;;;;3.78;1.63;;;;;;;;;;5020234;28;20033;-74
2023/04/12 09:37:41;;;;;;;7.40;1.65;;;;;;;;;;5020442;28;20025;-75
2023/04/12 09:40:08;;;;;;;2.13;1.40;;;;;;;;;;5023117;28;20034;-75
2023/04/12 09:42:35;;;;;;;3.17;1.90;;;;;;;;;;5022114;28;20034;-74
2023/04/12 09:45:01;;;;;;;5.40;1.77;;;;;;;;;;5024463;28;20123;-74
2023/04/12 09:47:40;;;;;;;5.45;1.48;;;;;;;;;;5023920;28;20389;-79
2023/04/12 09:50:06;;;;;;;2.47;1.35;;;;;;;;;;5015851;28;20022;-80
2023/04/12 09:52:37;;;;;;;2.33;1.40;;;;;;;;;;5016153;28;20104;-81
2023/04/12 09:55:08;;;;;;;4.25;1.27;;;;;;;;;;5016672;28;20029;-80
2023/04/12 09:57:34;;;;;;;1.33;1.20;;;;;;;;;;5016668;28;20041;-80
2023/04/12 10:00:02;;;;;;;4.18;1.35;;;;;;;;;;5014906;28;20507;-80
2023/04/12 10:02:28;;;;;;;2.22;1.27;;;;;;;;;;5017652;28;20029;-80
2023/04/12 10:04:54;;;;;;;1.33;1.05;;;;;;;;;;5020287;28;20017;-80
2023/04/12 10:07:20;;;;;;;1.10;1.00;;;;;;;;;;5021146;28;20488;-80
2023/04/12 10:09:47;;;;;;;1.95;0.93;;;;;;;;;;5020987;28;20033;-83
2023/04/12 10:12:13;;;;;;;1.05;0.90;;;;;;;;;;5023584;28;20053;-82
2023/04/12 10:14:39;;;;;;;3.80;1.00;;;;;;;;;;5013085;28;20425;-82
2023/04/12 10:17:06;;;;;;;4.95;1.00;;;;;;;;;;5021126;28;20088;-80
2023/04/12 10:19:32;;;;;;;2.00;1.00;;;;;;;;;;5016036;28;20434;-80
2023/04/12 10:22:00;;;;;;;1.95;1.15;;;;;;;;;;5022147;28;20021;-79
2023/04/12 10:24:27;;;;;;;1.60;0.80;;;;;;;;;;5013028;28;20026;-79
2023/04/12 10:26:54;;;;;;;0.57;0.57;;;;;;;;;;5023331;28;20065;-79
2023/04/12 10:29:32;;;;;;;0.90;0.80;;;;;;;;;;5009862;28;20072;-80
2023/04/12 10:32:18;;;;;;;3.60;1.85;;;;;;;;;;5016231;28;20112;-79
2023/04/12 10:34:44;;;;;;;1.25;0.77;;;;;;;;;;5009653;28;20068;-79
2023/04/12 10:37:10;;;;;;;2.53;0.90;;;;;;;;;;5026973;28;20124;-79
2023/04/12 10:39:37;;;;;;;1.70;0.85;;;;;;;;;;5011494;28;20768;-80
2023/04/12 10:42:15;;;;;;;0.85;0.70;;;;;;;;;;5010539;28;20476;-80
2023/04/12 10:44:41;;;;;;;0.90;0.70;;;;;;;;;;5012255;28;20017;-80
2023/04/12 10:47:10;;;;;;;1.05;0.93;;;;;;;;;;5020303;28;20084;-80
2023/04/12 10:49:36;;;;;;;1.80;1.02;;;;;;;;;;5021098;28;20037;-80
2023/04/12 10:52:09;;;;;;;1.58;0.90;;;;;;;;;;5027158;28;20041;-80
2023/04/12 10:54:35;;;;;;;0.93;0.73;;;;;;;;;;5027124;28;20044;-80
2023/04/12 10:57:05;;;;;;;0.93;0.80;;;;;;;;;;5026945;28;20029;-80
2023/04/12 10:59:55;;;;;;;0.80;0.80;;;;;;;;;;5027265;28;20457;-81
2023/04/12 11:02:21;;;;;;;2.20;1.00;;;;;;;;;;5028826;28;20030;-80
2023/04/12 11:05:03;;;;;;;1.02;0.90;;;;;;;;;;5030780;28;20555;-80
2023/04/12 11:07:40;;;;;;;0.82;0.70;;;;;;;;;;5031110;28;20057;-78
2023/04/12 11:10:13;;;;;;;0.68;0.68;;;;;;;;;;5028971;28;20033;-78
2023/04/12 11:12:40;;;;;;;1.30;1.20;;;;;;;;;;5024894;28;20470;-80
2023/04/12 11:15:06;;;;;;;1.45;0.73;;;;;;;;;;5010784;28;20473;-80
2023/04/12 11:17:32;;;;;;;1.50;1.20;;;;;;;;;;5010636;28;20065;-80
2023/04/12 11:19:59;;;;;;;0.77;0.70;;;;;;;;;;5010895;28;20065;-79
2023/04/12 11:22:29;;;;;;;0.68;0.68;;;;;;;;;;5014488;28;20026;-79
2023/04/12 11:24:57;;;;;;;1.77;1.10;;;;;;;;;;5030109;28;20025;-79
2023/04/12 11:27:24;;;;;;;3.38;1.08;;;;;;;;;;5013662;28;20033;-79
2023/04/12 11:29:57;;;;;;;2.08;0.80;;;;;;;;;;5010503;28;20473;-80
2023/04/12 11:32:25;;;;;;;1.30;1.05;;;;;;;;;;5010780;28;20488;-79
2023/04/12 11:34:51;;;;;;;3.55;1.08;;;;;;;;;;5022507;28;20068;-79
2023/04/12 11:37:20;;;;;;;1.13;0.82;;;;;;;;;;5030177;28;20036;-78
2023/04/12 11:39:47;;;;;;;0.60;0.60;;;;;;;;;;5019472;28;20456;-79
2023/04/12 11:42:15;;;;;;;1.00;0.90;;;;;;;;;;5019723;28;20473;-79
2023/04/12 11:44:41;;;;;;;3.85;0.77;;;;;;;;;;5025752;28;20033;-79
2023/04/12 11:47:13;;;;;;;0.60;0.60;;;;;;;;;;5027729;28;20029;-79
2023/04/12 11:49:42;;;;;;;0.77;0.73;;;;;;;;;;5023296;28;20053;-79
2023/04/12 11:52:08;;;;;;;1.40;0.60;;;;;;;;;;5025131;28;20034;-79
2023/04/12 11:54:34;;;;;;;0.73;0.52;;;;;;;;;;5027422;28;20388;-78
2023/04/12 11:57:00;;;;;;;0.75;0.75;;;;;;;;;;5009802;28;20018;-79
2023/04/12 11:59:33;;;;;;;1.20;0.60;;;;;;;;;;5022085;28;20022;-79
2023/04/12 12:02:01;;;;;;;0.77;0.77;;;;;;;;;;5009808;28;20029;-79
2023/04/12 12:04:28;;;;;;;2.30;0.93;;;;;;;;;;5010310;28;20026;-78
2023/04/12 12:06:55;;;;;;;0.73;0.65;;;;;;;;;;5009657;28;20116;-79
2023/04/12 12:09:21;;;;;;;3.83;1.20;;;;;;;;;;5014215;28;20030;-79
2023/04/12 12:11:47;;;;;;;0.75;0.70;;;;;;;;;;5021956;28;20750;-78
2023/04/12 12:14:17;;;;;;;0.47;0.47;;;;;;;;;;5029483;28;20045;-78
2023/04/12 12:16:52;;;;;;;2.38;0.95;;;;;;;;;;5029254;28;20156;-79
2023/04/12 12:19:25;;;;;;;1.25;0.70;;;;;;;;;;5027570;28;20064;-79
2023/04/12 12:21:51;;;;;;;1.00;0.65;;;;;;;;;;5023374;28;20029;-79
2023/04/12 12:24:17;;;;;;;0.50;0.50;;;;;;;;;;5029315;28;20018;-78
2023/04/12 12:26:43;;;;;;;0.77;0.60;;;;;;;;;;5026087;28;20080;-78
2023/04/12 12:29:16;;;;;;;0.70;0.70;;;;;;;;;;5016262;28;20480;-79
2023/04/12 12:31:46;;;;;;;0.50;0.40;;;;;;;;;;5026803;28;20045;-79
2023/04/12 12:34:13;;;;;;;0.88;0.55;;;;;;;;;;5029328;28;20484;-79
2023/04/12 12:36:39;;;;;;;0.57;0.55;;;;;;;;;;5028354;28;20076;-80
2023/04/12 12:39:09;;;;;;;0.68;0.68;;;;;;;;;;5029071;28;20021;-79
2023/04/12 12:41:35;;;;;;;0.88;0.88;;;;;;;;;;5023529;28;20160;-79
2023/04/12 12:44:01;;;;;;;0.65;0.40;;;;;;;;;;5027819;28;20036;-79
2023/04/12 12:46:27;;;;;;;1.05;0.60;;;;;;;;;;5029070;28;20108;-79
2023/04/12 12:48:53;;;;;;;0.70;0.50;;;;;;;;;;5028997;28;20104;-79
2023/04/12 12:51:19;;;;;;;0.90;0.43;;;;;;;;;;5027169;28;20024;-79
2023/04/12 12:53:46;;;;;;;1.63;0.55;;;;;;;;;;5025087;28;20156;-79
2023/04/12 12:56:12;;;;;;;1.15;0.70;;;;;;;;;;5026156;28;20026;-79
2023/04/12 12:58:38;;;;;;;0.70;0.70;;;;;;;;;;5021089;28;20025;-79
2023/04/12 13:01:05;;;;;;;1.70;0.60;;;;;;;;;;5020293;28;20116;-79
2023/04/12 13:03:31;;;;;;;0.85;0.63;;;;;;;;;;5010276;28;20044;-79
2023/04/12 13:05:57;;;;;;;0.70;0.57;;;;;;;;;;5014147;28;20041;-79
2023/04/12 13:08:23;;;;;;;0.30;0.30;;;;;;;;;;5028702;28;20064;-79
2023/04/12 13:10:49;;;;;;;1.02;0.93;;;;;;;;;;5026044;28;20030;-79
2023/04/12 13:13:15;;;;;;;0.50;0.50;;;;;;;;;;5018553;28;20014;-79
2023/04/12 13:15:42;;;;;;;0.47;0.45;;;;;;;;;;5026233;28;20042;-79
2023/04/12 13:18:09;;;;;;;0.57;0.50;;;;;;;;;;5028319;28;20033;-79
2023/04/12 13:20:35;;;;;;;0.30;0.30;;;;;;;;;;5028362;28;20688;-79
2023/04/12 13:23:01;;;;;;;0.52;0.40;;;;;;;;;;5023866;28;20038;-79
2023/04/12 13:25:27;;;;;;;0.80;0.50;;;;;;;;;;5026129;28;20021;-79
2023/04/12 13:27:53;;;;;;;0.35;0.30;;;;;;;;;;5008338;28;20026;-79
2023/04/12 13:30:19;;;;;;;0.47;0.40;;;;;;;;;;5008293;28;20029;-80
2023/04/12 13:32:45;;;;;;;0.90;0.50;;;;;;;;;;5008094;28;20034;-79
2023/04/12 13:35:11;;;;;;;0.40;0.38;;;;;;;;;;5022079;28;20084;-79
2023/04/12 13:37:37;;;;;;;0.75;0.50;;;;;;;;;;5007882;28;20124;-79
2023/04/12 13:40:04;;;;;;;0.73;0.50;;;;;;;;;;5008177;28;20022;-79
2023/04/12 13:42:30;;;;;;;0.40;0.38;;;;;;;;;;5013851;28;20396;-79
2023/04/12 13:44:56;;;;;;;0.73;0.60;;;;;;;;;;5019102;28;20116;-79
2023/04/12 13:47:22;;;;;;;0.80;0.50;;;;;;;;;;5027721;28;20057;-80
2023/04/12 13:49:48;;;;;;;0.43;0.40;;;;;;;;;;5027672;28;20464;-79
2023/04/12 13:52:14;;;;;;;1.02;0.65;;;;;;;;;;5027642;28;20022;-79
2023/04/12 13:54:41;;;;;;;0.68;0.32;;;;;;;;;;5025496;28;20400;-80
2023/04/12 13:57:08;;;;;;;1.08;0.77;;;;;;;;;;5027102;28;20037;-79
2023/04/12 13:59:34;;;;;;;1.70;0.80;;;;;;;;;;5027927;28;20083;-79
2023/04/12 14:02:00;;;;;;;0.50;0.30;;;;;;;;;;5027144;28;20037;-79
2023/04/12 14:04:30;;;;;;;2.17;0.40;;;;;;;;;;5025647;28;20108;-79
2023/04/12 14:06:56;;;;;;;0.63;0.63;;;;;;;;;;5019537;28;20086;-79
2023/04/12 14:09:26;;;;;;;0.90;0.43;;;;;;;;;;5011100;28;20033;-79
2023/04/12 14:11:54;;;;;;;0.50;0.50;;;;;;;;;;5007581;28;20030;-79
2023/04/12 14:14:20;;;;;;;0.50;0.50;;;;;;;;;;5019841;28;20054;-79
2023/04/12 14:16:46;;;;;;;0.40;0.40;;;;;;;;;;5019136;28;20385;-79
2023/04/12 14:19:12;;;;;;;0.40;0.30;;;;;;;;;;5027520;28;20020;-79
2023/04/12 14:21:38;;;;;;;0.35;0.35;;;;;;;;;;5027237;28;20376;-79
2023/04/12 14:24:04;;;;;;;1.15;0.70;;;;;;;;;;5027156;28;20028;-79
2023/04/12 14:26:30;;;;;;;0.70;0.60;;;;;;;;;;5021718;28;20032;-79
2023/04/12 14:28:56;;;;;;;3.10;0.38;;;;;;;;;;5026777;28;20033;-79
2023/04/12 14:31:22;;;;;;;0.35;0.35;;;;;;;;;;5027267;28;20076;-79
2023/04/12 14:33:48;;;;;;;0.70;0.50;;;;;;;;;;5024154;28;20057;-79
2023/04/12 14:36:14;;;;;;;0.30;0.30;;;;;;;;;;5027349;28;20025;-79
2023/04/12 14:38:40;;;;;;;1.02;0.40;;;;;;;;;;5031074;28;20499;-79
2023/04/12 14:41:07;;;;;;;0.65;0.50;;;;;;;;;;5031348;28;20036;-79
2023/04/12 14:43:33;;;;;;;0.47;0.45;;;;;;;;;;5013391;28;20034;-79